createdAt,value
2018-04-23T00:01:00.050Z,16.70
2018-04-23T00:02:01.827Z,16.67
2018-04-23T00:03:00.416Z,16.60
2018-04-23T00:04:02.320Z,16.62
2018-04-23T00:05:00.784Z,16.60
2018-04-23T00:06:01.012Z,16.58
2018-04-23T00:07:01.217Z,16.55
2018-04-23T00:08:01.435Z,16.58
2018-04-23T00:09:01.663Z,16.55
2018-04-23T00:10:01.886Z,16.42
2018-04-23T00:11:02.112Z,16.35
2018-04-23T00:12:02.328Z,16.38
2018-04-23T00:13:02.586Z,16.33
2018-04-23T00:14:02.772Z,16.20
2018-04-23T00:15:02.992Z,16.22
2018-04-23T00:16:03.221Z,16.20
2018-04-23T00:17:03.460Z,16.06
2018-04-23T00:18:03.668Z,16.07
2018-04-23T00:19:03.879Z,16.15
2018-04-23T00:20:05.823Z,16.12
2018-04-23T00:21:04.311Z,16.06
2018-04-23T00:22:08.327Z,16.15
2018-04-23T00:23:04.666Z,16.01
2018-04-23T00:24:04.880Z,16.06
2018-04-23T00:25:05.097Z,16.00
2018-04-23T00:26:05.311Z,15.99
2018-04-23T00:27:05.524Z,15.97
2018-04-23T00:28:05.745Z,15.99
2018-04-23T00:29:05.955Z,16.07
2018-04-23T00:30:06.170Z,15.88
2018-04-23T00:31:06.391Z,15.93
2018-04-23T00:32:06.651Z,15.94
2018-04-23T00:33:06.842Z,15.88
2018-04-23T00:34:07.049Z,15.86
2018-04-23T00:35:07.270Z,15.96
2018-04-23T00:36:07.501Z,15.88
2018-04-23T00:37:07.714Z,15.94
2018-04-23T00:38:07.937Z,15.89
2018-04-23T00:39:08.162Z,15.88
2018-04-23T00:40:10.333Z,15.81
2018-04-23T00:41:08.545Z,15.78
2018-04-23T00:42:08.757Z,15.79
2018-04-23T00:43:08.974Z,15.82
2018-04-23T00:44:09.207Z,15.76
2018-04-23T00:45:11.330Z,15.78
2018-04-23T00:46:09.560Z,15.85
2018-04-23T00:47:09.800Z,15.81
2018-04-23T00:48:11.828Z,15.82
2018-04-23T00:49:13.822Z,15.76
2018-04-23T00:50:10.172Z,15.74
2018-04-23T00:51:10.388Z,15.68
2018-04-23T00:52:12.331Z,15.70
2018-04-23T00:53:10.787Z,15.68
2018-04-23T00:54:11.021Z,15.68
2018-04-23T00:55:11.234Z,15.72
2018-04-23T00:56:11.444Z,15.66
2018-04-23T00:57:11.652Z,15.60
2018-04-23T00:58:11.871Z,15.59
2018-04-23T00:59:12.091Z,15.60
2018-04-23T01:00:15.827Z,15.57
2018-04-23T01:01:12.402Z,15.64
2018-04-23T01:02:12.617Z,15.49
2018-04-23T01:03:12.827Z,15.51
2018-04-23T01:04:13.033Z,15.63
2018-04-23T01:05:13.270Z,15.57
2018-04-23T01:06:13.475Z,15.57
2018-04-23T01:07:13.681Z,15.60
2018-04-23T01:08:13.898Z,15.57
2018-04-23T01:09:14.116Z,15.54
2018-04-23T01:10:14.327Z,15.66
2018-04-23T01:11:14.552Z,15.61
2018-04-23T01:12:14.771Z,15.60
2018-04-23T01:13:14.995Z,15.56
2018-04-23T01:14:15.208Z,15.64
2018-04-23T01:15:15.415Z,15.63
2018-04-23T01:16:15.637Z,15.63
2018-04-23T01:17:15.846Z,15.64
2018-04-23T01:18:16.068Z,15.63
2018-04-23T01:19:16.283Z,15.64
2018-04-23T01:20:16.479Z,15.59
2018-04-23T01:21:16.699Z,15.60
2018-04-23T01:22:20.866Z,15.64
2018-04-23T01:23:17.046Z,15.61
2018-04-23T01:24:18.826Z,15.59
2018-04-23T01:25:17.437Z,15.61
2018-04-23T01:26:17.639Z,15.43
2018-04-23T01:27:17.853Z,15.48
2018-04-23T01:28:19.878Z,15.48
2018-04-23T01:29:18.297Z,15.56
2018-04-23T01:30:18.511Z,15.52
2018-04-23T01:31:18.721Z,15.42
2018-04-23T01:32:22.823Z,15.48
2018-04-23T01:33:20.826Z,15.57
2018-04-23T01:34:19.283Z,15.61
2018-04-23T01:35:19.508Z,15.57
2018-04-23T01:36:19.719Z,15.60
2018-04-23T01:37:19.928Z,15.68
2018-04-23T01:38:20.166Z,15.64
2018-04-23T01:39:20.366Z,15.60
2018-04-23T01:40:20.579Z,15.61
2018-04-23T01:41:20.792Z,15.66
2018-04-23T01:42:21.023Z,15.54
2018-04-23T01:43:21.213Z,15.49
2018-04-23T01:44:21.438Z,15.61
2018-04-23T01:45:21.651Z,15.56
2018-04-23T01:46:21.866Z,15.61
2018-04-23T01:47:22.090Z,15.63
2018-04-23T01:48:22.298Z,15.60
2018-04-23T01:49:22.508Z,15.61
2018-04-23T01:50:24.328Z,15.63
2018-04-23T01:51:22.939Z,15.66
2018-04-23T01:52:23.147Z,15.68
2018-04-23T01:53:23.354Z,15.70
2018-04-23T01:54:23.577Z,15.64
2018-04-23T01:55:23.802Z,15.67
2018-04-23T01:56:24.015Z,15.76
2018-04-23T01:57:24.240Z,15.70
2018-04-23T01:58:24.458Z,15.70
2018-04-23T01:59:24.674Z,15.70
2018-04-23T02:00:24.891Z,15.74
2018-04-23T02:01:25.118Z,15.75
2018-04-23T02:02:26.826Z,15.67
2018-04-23T02:03:28.336Z,15.67
2018-04-23T02:04:25.689Z,15.68
2018-04-23T02:05:25.896Z,15.66
2018-04-23T02:06:26.124Z,15.68
2018-04-23T02:07:26.321Z,15.66
2018-04-23T02:08:26.541Z,15.67
2018-04-23T02:09:26.764Z,15.60
2018-04-23T02:10:26.977Z,15.63
2018-04-23T02:11:27.187Z,15.57
2018-04-23T02:12:27.404Z,15.72
2018-04-23T02:13:27.618Z,15.64
2018-04-23T02:14:27.868Z,15.64
2018-04-23T02:15:31.829Z,15.51
2018-04-23T02:16:29.825Z,15.41
2018-04-23T02:17:28.410Z,15.46
2018-04-23T02:18:28.621Z,15.49
2018-04-23T02:19:30.334Z,15.41
2018-04-23T02:20:29.049Z,15.48
2018-04-23T02:21:29.257Z,15.43
2018-04-23T02:22:29.473Z,15.36
2018-04-23T02:23:31.338Z,15.41
2018-04-23T02:24:29.934Z,15.41
2018-04-23T02:25:30.150Z,15.43
2018-04-23T02:26:30.366Z,15.36
2018-04-23T02:27:30.610Z,15.41
2018-04-23T02:28:30.798Z,15.30
2018-04-23T02:29:32.830Z,15.35
2018-04-23T02:30:32.836Z,15.28
2018-04-23T02:31:31.312Z,15.39
2018-04-23T02:32:31.515Z,15.36
2018-04-23T02:33:31.772Z,15.38
2018-04-23T02:34:31.943Z,15.39
2018-04-23T02:35:32.156Z,15.39
2018-04-23T02:36:34.332Z,15.42
2018-04-23T02:37:32.547Z,15.31
2018-04-23T02:38:32.762Z,15.39
2018-04-23T02:39:32.979Z,15.38
2018-04-23T02:40:33.196Z,15.35
2018-04-23T02:41:35.334Z,15.36
2018-04-23T02:42:37.327Z,15.26
2018-04-23T02:43:33.680Z,15.26
2018-04-23T02:44:33.902Z,15.27
2018-04-23T02:45:34.113Z,15.31
2018-04-23T02:46:34.330Z,15.33
2018-04-23T02:47:34.543Z,15.31
2018-04-23T02:48:34.751Z,15.39
2018-04-23T02:49:34.973Z,15.36
2018-04-23T02:50:35.176Z,15.35
2018-04-23T02:51:35.385Z,15.38
2018-04-23T02:52:39.334Z,15.38
2018-04-23T02:53:35.808Z,15.42
2018-04-23T02:54:36.017Z,15.42
2018-04-23T02:55:36.234Z,15.45
2018-04-23T02:56:38.332Z,15.38
2018-04-23T02:57:36.669Z,15.35
2018-04-23T02:58:36.890Z,15.24
2018-04-23T02:59:37.095Z,15.23
2018-04-23T03:00:37.314Z,15.26
2018-04-23T03:01:37.542Z,15.19
2018-04-23T03:02:39.345Z,15.15
2018-04-23T03:03:37.944Z,15.19
2018-04-23T03:04:38.148Z,15.05
2018-04-23T03:05:38.359Z,15.08
2018-04-23T03:06:38.591Z,15.03
2018-04-23T03:07:38.806Z,15.08
2018-04-23T03:08:39.027Z,15.11
2018-04-23T03:09:39.237Z,14.94
2018-04-23T03:10:39.445Z,15.03
2018-04-23T03:11:41.342Z,15.08
2018-04-23T03:12:39.799Z,15.03
2018-04-23T03:13:40.023Z,15.02
2018-04-23T03:14:40.248Z,15.02
2018-04-23T03:15:40.454Z,15.08
2018-04-23T03:16:40.674Z,14.98
2018-04-23T03:17:42.841Z,15.12
2018-04-23T03:18:41.041Z,15.08
2018-04-23T03:19:41.258Z,15.06
2018-04-23T03:20:41.479Z,14.99
2018-04-23T03:21:41.684Z,15.06
2018-04-23T03:22:41.901Z,15.02
2018-04-23T03:23:42.155Z,15.15
2018-04-23T03:24:42.317Z,15.09
2018-04-23T03:25:42.534Z,15.13
2018-04-23T03:26:44.331Z,15.15
2018-04-23T03:27:42.917Z,15.09
2018-04-23T03:28:43.135Z,15.08
2018-04-23T03:29:46.330Z,15.09
2018-04-23T03:30:43.536Z,15.13
2018-04-23T03:31:45.333Z,15.06
2018-04-23T03:32:43.912Z,15.15
2018-04-23T03:33:44.124Z,15.19
2018-04-23T03:34:44.332Z,15.17
2018-04-23T03:35:46.334Z,15.15
2018-04-23T03:36:44.667Z,15.11
2018-04-23T03:37:44.879Z,15.15
2018-04-23T03:38:46.837Z,15.17
2018-04-23T03:39:45.297Z,15.17
2018-04-23T03:40:45.518Z,15.15
2018-04-23T03:41:45.732Z,15.23
2018-04-23T03:42:45.942Z,15.26
2018-04-23T03:43:46.150Z,15.28
2018-04-23T03:44:48.329Z,15.38
2018-04-23T03:45:46.543Z,15.39
2018-04-23T03:46:46.767Z,15.36
2018-04-23T03:47:47.002Z,15.42
2018-04-23T03:48:47.206Z,15.41
2018-04-23T03:49:47.429Z,15.39
2018-04-23T03:50:47.650Z,15.42
2018-04-23T03:51:47.869Z,15.36
2018-04-23T03:52:48.094Z,15.21
2018-04-23T03:53:48.321Z,15.17
2018-04-23T03:54:48.533Z,15.20
2018-04-23T03:55:48.749Z,15.23
2018-04-23T03:56:50.845Z,15.12
2018-04-23T03:57:49.195Z,15.11
2018-04-23T03:58:49.418Z,15.05
2018-04-23T03:59:49.630Z,14.99
2018-04-23T04:00:49.856Z,15.03
2018-04-23T04:01:50.056Z,15.02
2018-04-23T04:02:50.275Z,15.05
2018-04-23T04:03:50.494Z,14.90
2018-04-23T04:04:50.710Z,14.94
2018-04-23T04:05:50.925Z,14.90
2018-04-23T04:06:51.158Z,15.02
2018-04-23T04:07:51.367Z,15.03
2018-04-23T04:08:51.581Z,15.09
2018-04-23T04:09:51.806Z,15.12
2018-04-23T04:10:52.009Z,15.02
2018-04-23T04:11:52.232Z,15.01
2018-04-23T04:12:52.443Z,15.06
2018-04-23T04:13:52.649Z,15.12
2018-04-23T04:14:52.867Z,15.03
2018-04-23T04:15:53.073Z,15.03
2018-04-23T04:16:53.305Z,14.95
2018-04-23T04:17:53.894Z,14.99
2018-04-23T04:18:53.751Z,15.08
2018-04-23T04:19:53.965Z,15.03
2018-04-23T04:20:54.173Z,15.02
2018-04-23T04:21:54.386Z,14.99
2018-04-23T04:22:54.612Z,15.05
2018-04-23T04:23:54.825Z,15.05
2018-04-23T04:24:55.035Z,15.05
2018-04-23T04:25:55.245Z,15.03
2018-04-23T04:26:59.366Z,15.06
2018-04-23T04:27:55.672Z,15.05
2018-04-23T04:28:55.885Z,14.99
2018-04-23T04:29:56.104Z,14.95
2018-04-23T04:30:56.342Z,14.98
2018-04-23T04:31:58.339Z,15.05
2018-04-23T04:32:56.683Z,15.03
2018-04-23T04:33:56.890Z,15.06
2018-04-23T04:34:57.108Z,15.12
2018-04-23T04:35:57.330Z,15.12
2018-04-23T04:36:57.531Z,15.12
2018-04-23T04:37:57.745Z,15.06
2018-04-23T04:38:57.956Z,15.13
2018-04-23T04:39:58.166Z,15.06
2018-04-23T04:40:58.428Z,15.17
2018-04-23T04:41:58.616Z,15.13
2018-04-23T04:42:58.827Z,15.12
2018-04-23T04:43:59.094Z,15.13
2018-04-23T04:44:59.263Z,15.24
2018-04-23T04:45:59.475Z,15.35
2018-04-23T04:46:59.695Z,15.23
2018-04-23T04:47:59.941Z,15.30
2018-04-23T04:49:00.147Z,15.26
2018-04-23T04:50:01.852Z,15.24
2018-04-23T04:51:00.568Z,15.20
2018-04-23T04:52:00.791Z,15.23
2018-04-23T04:53:02.842Z,15.23
2018-04-23T04:54:01.163Z,15.19
2018-04-23T04:55:01.384Z,15.21
2018-04-23T04:56:01.600Z,15.19
2018-04-23T04:57:01.816Z,15.13
2018-04-23T04:58:02.046Z,15.13
2018-04-23T04:59:02.286Z,15.08
2018-04-23T05:00:02.487Z,15.13
2018-04-23T05:01:02.706Z,15.17
2018-04-23T05:02:02.914Z,15.20
2018-04-23T05:03:03.125Z,15.31
2018-04-23T05:04:03.340Z,15.30
2018-04-23T05:05:03.546Z,15.30
2018-04-23T05:06:05.336Z,15.36
2018-04-23T05:07:03.920Z,15.30
2018-04-23T05:08:04.129Z,15.23
2018-04-23T05:09:04.352Z,15.26
2018-04-23T05:10:04.565Z,15.36
2018-04-23T05:11:06.340Z,15.23
2018-04-23T05:12:04.931Z,15.27
2018-04-23T05:13:06.847Z,15.28
2018-04-23T05:14:05.294Z,15.39
2018-04-23T05:15:05.517Z,15.46
2018-04-23T05:16:05.725Z,15.52
2018-04-23T05:17:05.939Z,15.61
2018-04-23T05:18:06.151Z,15.52
2018-04-23T05:19:06.373Z,15.57
2018-04-23T05:20:06.585Z,15.56
2018-04-23T05:21:06.871Z,15.67
2018-04-23T05:22:07.040Z,15.64
2018-04-23T05:23:07.244Z,15.60
2018-04-23T05:24:07.452Z,15.63
2018-04-23T05:25:07.674Z,15.63
2018-04-23T05:26:07.879Z,15.63
2018-04-23T05:27:08.085Z,15.64
2018-04-23T05:28:08.305Z,15.60
2018-04-23T05:29:08.515Z,15.57
2018-04-23T05:30:08.730Z,15.59
2018-04-23T05:31:08.956Z,15.68
2018-04-23T05:32:09.165Z,15.70
2018-04-23T05:33:09.388Z,15.78
2018-04-23T05:34:11.338Z,15.81
2018-04-23T05:35:09.800Z,15.84
2018-04-23T05:36:10.034Z,15.96
2018-04-23T05:37:10.250Z,15.93
2018-04-23T05:38:10.455Z,15.88
2018-04-23T05:39:10.678Z,16.01
2018-04-23T05:40:10.893Z,16.00
2018-04-23T05:41:11.103Z,15.89
2018-04-23T05:42:11.330Z,16.00
2018-04-23T05:43:13.376Z,15.93
2018-04-23T05:44:11.722Z,16.01
2018-04-23T05:45:11.897Z,15.96
2018-04-23T05:46:12.124Z,15.99
2018-04-23T05:47:12.342Z,16.03
2018-04-23T05:48:12.552Z,15.89
2018-04-23T05:49:12.784Z,15.84
2018-04-23T05:50:13.004Z,15.92
2018-04-23T05:51:13.218Z,15.85
2018-04-23T05:52:13.434Z,16.03
2018-04-23T05:53:13.643Z,16.09
2018-04-23T05:54:13.856Z,15.97
2018-04-23T05:55:14.080Z,16.06
2018-04-23T05:56:14.288Z,15.96
2018-04-23T05:57:14.498Z,16.00
2018-04-23T05:58:14.716Z,16.00
2018-04-23T05:59:14.930Z,16.00
2018-04-23T06:00:15.151Z,16.07
2018-04-23T06:01:15.360Z,16.06
2018-04-23T06:02:17.342Z,16.03
2018-04-23T06:03:15.856Z,15.96
2018-04-23T06:04:19.835Z,15.96
2018-04-23T06:05:16.256Z,15.96
2018-04-23T06:06:18.341Z,16.01
2018-04-23T06:07:16.565Z,15.99
2018-04-23T06:08:16.775Z,15.89
2018-04-23T06:09:16.996Z,15.93
2018-04-23T06:10:17.212Z,15.92
2018-04-23T06:11:17.431Z,15.86
2018-04-23T06:12:19.355Z,15.89
2018-04-23T06:13:17.827Z,15.89
2018-04-23T06:14:19.890Z,15.94
2018-04-23T06:15:18.167Z,15.86
2018-04-23T06:16:18.375Z,15.88
2018-04-23T06:17:18.599Z,15.97
2018-04-23T06:18:18.808Z,16.00
2018-04-23T06:19:25.849Z,15.96
2018-04-23T06:20:19.217Z,16.01
2018-04-23T06:21:19.317Z,15.99
2018-04-23T06:22:19.532Z,16.03
2018-04-23T06:23:19.755Z,16.01
2018-04-23T06:24:19.965Z,15.81
2018-04-23T06:25:20.183Z,15.96
2018-04-23T06:26:22.336Z,16.00
2018-04-23T06:27:20.540Z,15.94
2018-04-23T06:28:20.770Z,15.96
2018-04-23T06:29:20.971Z,16.06
2018-04-23T06:30:21.178Z,15.99
2018-04-23T06:31:21.397Z,16.00
2018-04-23T06:32:23.337Z,15.94
2018-04-23T06:33:21.796Z,16.07
2018-04-23T06:34:22.003Z,16.00
2018-04-23T06:35:22.237Z,16.03
2018-04-23T06:36:22.462Z,16.06
2018-04-23T06:37:22.666Z,16.03
2018-04-23T06:38:22.897Z,16.01
2018-04-23T06:39:23.138Z,16.03
2018-04-23T06:40:23.231Z,16.11
2018-04-23T06:41:23.449Z,16.12
2018-04-23T06:42:23.661Z,16.20
2018-04-23T06:43:23.869Z,16.12
2018-04-23T06:44:24.092Z,16.16
2018-04-23T06:45:24.299Z,16.18
2018-04-23T06:46:26.398Z,16.27
2018-04-23T06:47:24.713Z,16.26
2018-04-23T06:48:24.925Z,16.50
2018-04-23T06:49:25.198Z,16.48
2018-04-23T06:50:25.291Z,16.53
2018-04-23T06:51:25.489Z,16.62
2018-04-23T06:52:25.712Z,16.59
2018-04-23T06:53:25.938Z,16.63
2018-04-23T06:54:26.157Z,16.63
2018-04-23T06:55:26.375Z,16.63
2018-04-23T06:56:26.587Z,16.63
2018-04-23T06:57:26.803Z,16.68
2018-04-23T06:58:27.022Z,16.71
2018-04-23T06:59:27.265Z,16.85
2018-04-23T07:00:27.352Z,16.92
2018-04-23T07:01:27.588Z,17.04
2018-04-23T07:02:27.793Z,17.14
2018-04-23T07:03:28.014Z,17.17
2018-04-23T07:04:28.228Z,17.15
2018-04-23T07:05:28.433Z,17.10
2018-04-23T07:06:28.659Z,17.18
2018-04-23T07:07:28.872Z,17.25
2018-04-23T07:08:29.104Z,17.35
2018-04-23T07:09:30.844Z,17.43
2018-04-23T07:10:29.590Z,17.43
2018-04-23T07:11:29.807Z,17.50
2018-04-23T07:12:33.841Z,17.59
2018-04-23T07:13:30.178Z,17.71
2018-04-23T07:14:30.406Z,17.89
2018-04-23T07:15:30.620Z,17.95
2018-04-23T07:16:30.883Z,17.92
2018-04-23T07:17:31.043Z,17.97
2018-04-23T07:18:31.283Z,18.15
2018-04-23T07:19:32.028Z,18.37
2018-04-23T07:20:31.719Z,18.28
2018-04-23T07:21:31.940Z,18.44
2018-04-23T07:22:33.841Z,18.34
2018-04-23T07:23:33.842Z,18.52
2018-04-23T07:24:32.431Z,18.73
2018-04-23T07:25:32.648Z,18.84
2018-04-23T07:26:32.871Z,18.99
2018-04-23T07:27:33.078Z,19.18
2018-04-23T07:28:33.296Z,19.18
2018-04-23T07:29:33.506Z,19.58
2018-04-23T07:30:33.729Z,19.91
2018-04-23T07:31:33.942Z,19.90
2018-04-23T07:32:35.843Z,19.88
2018-04-23T07:33:34.304Z,20.03
2018-04-23T07:34:36.354Z,20.08
2018-04-23T07:35:34.692Z,20.13
2018-04-23T07:36:36.858Z,20.23
2018-04-23T07:37:35.066Z,20.35
2018-04-23T07:38:38.886Z,20.33
2018-04-23T07:39:35.445Z,20.53
2018-04-23T07:40:35.656Z,20.58
2018-04-23T07:41:35.895Z,20.65
2018-04-23T07:42:36.113Z,20.61
2018-04-23T07:43:36.341Z,20.49
2018-04-23T07:44:38.363Z,20.47
2018-04-23T07:45:36.692Z,20.25
2018-04-23T07:46:36.907Z,20.24
2018-04-23T07:47:37.123Z,20.20
2018-04-23T07:48:37.339Z,20.27
2018-04-23T07:49:37.588Z,20.41
2018-04-23T07:50:37.774Z,20.33
2018-04-23T07:51:38.020Z,20.39
2018-04-23T07:52:38.232Z,20.51
2018-04-23T07:53:41.357Z,20.46
2018-04-23T07:54:40.384Z,20.47
2018-04-23T07:55:38.811Z,20.39
2018-04-23T07:56:39.041Z,20.43
2018-04-23T07:57:39.258Z,20.47
2018-04-23T07:58:39.467Z,20.47
2018-04-23T07:59:41.347Z,20.46
2018-04-23T08:00:39.818Z,20.56
2018-04-23T08:01:40.027Z,20.51
2018-04-23T08:02:41.877Z,20.59
2018-04-23T08:03:40.522Z,20.68
2018-04-23T08:04:42.363Z,20.77
2018-04-23T08:05:42.849Z,20.68
2018-04-23T08:06:41.060Z,20.74
2018-04-23T08:07:42.858Z,20.84
2018-04-23T08:08:41.455Z,20.79
2018-04-23T08:09:43.362Z,20.74
2018-04-23T08:10:41.832Z,20.77
2018-04-23T08:11:42.046Z,20.58
2018-04-23T08:12:42.284Z,20.47
2018-04-23T08:13:42.481Z,20.47
2018-04-23T08:14:42.704Z,20.50
2018-04-23T08:15:42.908Z,20.47
2018-04-23T08:16:43.139Z,20.47
2018-04-23T08:17:43.364Z,20.39
2018-04-23T08:18:43.595Z,20.39
2018-04-23T08:19:43.893Z,20.34
2018-04-23T08:20:44.036Z,20.24
2018-04-23T08:21:44.264Z,20.23
2018-04-23T08:22:44.486Z,20.25
2018-04-23T08:23:44.734Z,20.30
2018-04-23T08:24:44.956Z,20.13
2018-04-23T08:25:45.168Z,20.12
2018-04-23T08:26:45.417Z,20.13
2018-04-23T08:27:45.534Z,19.98
2018-04-23T08:28:45.745Z,20.02
2018-04-23T08:29:45.997Z,19.86
2018-04-23T08:30:46.093Z,19.90
2018-04-23T08:31:47.863Z,19.86
2018-04-23T08:32:46.458Z,19.83
2018-04-23T08:33:46.596Z,19.90
2018-04-23T08:34:46.815Z,19.97
2018-04-23T08:35:47.028Z,20.12
2018-04-23T08:36:47.249Z,20.00
2018-04-23T08:37:47.462Z,20.06
2018-04-23T08:38:47.690Z,20.18
2018-04-23T08:39:47.916Z,20.42
2018-04-23T08:40:48.179Z,20.46
2018-04-23T08:41:48.367Z,20.77
2018-04-23T08:42:50.360Z,21.01
2018-04-23T08:43:48.855Z,21.39
2018-04-23T08:44:49.050Z,21.82
2018-04-23T08:45:51.849Z,21.60
2018-04-23T08:46:49.441Z,21.71
2018-04-23T08:47:49.657Z,21.74
2018-04-23T08:48:49.885Z,21.74
2018-04-23T08:49:51.854Z,21.78
2018-04-23T08:50:51.870Z,21.56
2018-04-23T08:51:50.479Z,21.42
2018-04-23T08:52:50.697Z,21.46
2018-04-23T08:53:52.870Z,21.32
2018-04-23T08:54:51.110Z,21.24
2018-04-23T08:55:53.889Z,21.23
2018-04-23T08:56:51.469Z,21.09
2018-04-23T08:57:51.694Z,20.84
2018-04-23T08:58:53.907Z,20.77
